sensor_id;sensor_type;location;lat;lon;timestamp;P1;durP1;ratioP1;P2;durP2;ratioP2
1837;SDS011;918;50.796;6.772;2024-03-23T00:54:58;12.40;;;10.10;;
1837;SDS011;918;50.796;6.772;2024-03-23T00:57:23;19.33;;;9.90;;
1837;SDS011;918;50.796;6.772;2024-03-23T00:59:49;16.77;;;10.27;;
1837;SDS011;918;50.796;6.772;2024-03-23T01:02:14;15.57;;;9.87;;
1837;SDS011;918;50.796;6.772;2024-03-23T01:04:39;14.67;;;11.20;;
1837;SDS011;918;50.796;6.772;2024-03-23T01:07:04;13.30;;;10.67;;
1837;SDS011;918;50.796;6.772;2024-03-23T01:09:30;15.77;;;10.53;;
1837;SDS011;918;50.796;6.772;2024-03-23T01:11:55;15.40;;;12.20;;
1837;SDS011;918;50.796;6.772;2024-03-23T01:14:20;12.00;;;10.23;;
1837;SDS011;918;50.796;6.772;2024-03-23T01:16:45;14.30;;;10.90;;
1837;SDS011;918;50.796;6.772;2024-03-23T01:19:11;13.60;;;9.73;;
1837;SDS011;918;50.796;6.772;2024-03-23T01:21:36;13.27;;;9.70;;
1837;SDS011;918;50.796;6.772;2024-03-23T01:24:02;13.87;;;9.23;;
1837;SDS011;918;50.796;6.772;2024-03-23T01:26:27;13.93;;;9.30;;
1837;SDS011;918;50.796;6.772;2024-03-23T01:28:52;11.53;;;8.80;;
1837;SDS011;918;50.796;6.772;2024-03-23T01:31:18;12.60;;;9.30;;
1837;SDS011;918;50.796;6.772;2024-03-23T01:33:43;14.70;;;8.50;;
1837;SDS011;918;50.796;6.772;2024-03-23T01:36:08;11.20;;;8.20;;
1837;SDS011;918;50.796;6.772;2024-03-23T01:38:33;13.20;;;7.60;;
1837;SDS011;918;50.796;6.772;2024-03-23T01:40:59;9.00;;;6.90;;
1837;SDS011;918;50.796;6.772;2024-03-23T01:43:24;7.97;;;6.87;;
1837;SDS011;918;50.796;6.772;2024-03-23T01:45:50;8.90;;;6.03;;
1837;SDS011;918;50.796;6.772;2024-03-23T01:48:15;5.70;;;4.60;;
1837;SDS011;918;50.796;6.772;2024-03-23T01:50:41;6.27;;;5.43;;
1837;SDS011;918;50.796;6.772;2024-03-23T01:53:06;6.03;;;3.83;;
1837;SDS011;918;50.796;6.772;2024-03-23T01:55:32;4.10;;;3.70;;
1837;SDS011;918;50.796;6.772;2024-03-23T01:57:58;6.90;;;3.43;;
1837;SDS011;918;50.796;6.772;2024-03-23T02:00:23;4.73;;;2.77;;
1837;SDS011;918;50.796;6.772;2024-03-23T02:02:49;5.70;;;3.00;;
1837;SDS011;918;50.796;6.772;2024-03-23T02:05:14;5.10;;;3.70;;
1837;SDS011;918;50.796;6.772;2024-03-23T02:07:40;5.50;;;4.00;;
1837;SDS011;918;50.796;6.772;2024-03-23T02:10:06;4.73;;;3.70;;
1837;SDS011;918;50.796;6.772;2024-03-23T02:12:32;4.53;;;3.80;;
1837;SDS011;918;50.796;6.772;2024-03-23T02:14:57;7.97;;;4.00;;
1837;SDS011;918;50.796;6.772;2024-03-23T02:17:22;4.40;;;3.20;;
1837;SDS011;918;50.796;6.772;2024-03-23T02:19:48;7.80;;;3.03;;
1837;SDS011;918;50.796;6.772;2024-03-23T02:22:13;3.73;;;2.40;;
1837;SDS011;918;50.796;6.772;2024-03-23T02:24:40;5.70;;;3.23;;
1837;SDS011;918;50.796;6.772;2024-03-23T02:27:06;3.53;;;3.03;;
1837;SDS011;918;50.796;6.772;2024-03-23T02:29:31;3.17;;;2.60;;
1837;SDS011;918;50.796;6.772;2024-03-23T02:31:56;5.87;;;3.20;;
1837;SDS011;918;50.796;6.772;2024-03-23T02:34:23;4.97;;;2.93;;
1837;SDS011;918;50.796;6.772;2024-03-23T02:36:49;4.23;;;2.27;;
1837;SDS011;918;50.796;6.772;2024-03-23T02:39:14;3.87;;;2.13;;
1837;SDS011;918;50.796;6.772;2024-03-23T02:41:40;3.07;;;2.00;;
1837;SDS011;918;50.796;6.772;2024-03-23T02:44:05;4.47;;;2.53;;
1837;SDS011;918;50.796;6.772;2024-03-23T02:46:31;3.37;;;1.87;;
1837;SDS011;918;50.796;6.772;2024-03-23T02:48:56;2.93;;;1.87;;
1837;SDS011;918;50.796;6.772;2024-03-23T02:51:22;6.07;;;2.30;;
1837;SDS011;918;50.796;6.772;2024-03-23T02:53:47;4.67;;;2.40;;
1837;SDS011;918;50.796;6.772;2024-03-23T02:56:12;4.07;;;2.17;;
1837;SDS011;918;50.796;6.772;2024-03-23T02:58:40;3.20;;;2.37;;
1837;SDS011;918;50.796;6.772;2024-03-23T03:01:06;6.60;;;3.20;;
1837;SDS011;918;50.796;6.772;2024-03-23T03:03:31;6.67;;;2.57;;
1837;SDS011;918;50.796;6.772;2024-03-23T03:05:56;4.47;;;2.20;;
1837;SDS011;918;50.796;6.772;2024-03-23T03:08:22;4.40;;;2.27;;
1837;SDS011;918;50.796;6.772;2024-03-23T03:10:47;4.70;;;3.17;;
1837;SDS011;918;50.796;6.772;2024-03-23T03:13:12;3.70;;;2.30;;
1837;SDS011;918;50.796;6.772;2024-03-23T03:15:39;2.97;;;2.17;;
1837;SDS011;918;50.796;6.772;2024-03-23T03:18:05;6.10;;;2.47;;
1837;SDS011;918;50.796;6.772;2024-03-23T03:20:30;4.50;;;2.37;;
1837;SDS011;918;50.796;6.772;2024-03-23T03:22:56;5.60;;;2.70;;
1837;SDS011;918;50.796;6.772;2024-03-23T03:25:22;3.33;;;2.37;;
1837;SDS011;918;50.796;6.772;2024-03-23T03:27:47;3.03;;;2.40;;
1837;SDS011;918;50.796;6.772;2024-03-23T03:30:12;3.67;;;2.77;;
1837;SDS011;918;50.796;6.772;2024-03-23T03:32:38;7.33;;;2.97;;
1837;SDS011;918;50.796;6.772;2024-03-23T03:35:03;7.20;;;2.77;;
1837;SDS011;918;50.796;6.772;2024-03-23T03:37:29;4.93;;;2.50;;
1837;SDS011;918;50.796;6.772;2024-03-23T03:39:55;5.23;;;2.57;;
1837;SDS011;918;50.796;6.772;2024-03-23T03:42:20;4.30;;;2.57;;
1837;SDS011;918;50.796;6.772;2024-03-23T03:44:45;9.40;;;3.10;;
1837;SDS011;918;50.796;6.772;2024-03-23T03:47:11;5.80;;;2.70;;
1837;SDS011;918;50.796;6.772;2024-03-23T03:49:36;6.20;;;3.87;;
1837;SDS011;918;50.796;6.772;2024-03-23T03:52:01;5.10;;;2.30;;
1837;SDS011;918;50.796;6.772;2024-03-23T03:54:27;8.50;;;2.53;;
1837;SDS011;918;50.796;6.772;2024-03-23T03:56:52;4.30;;;1.93;;
1837;SDS011;918;50.796;6.772;2024-03-23T03:59:18;6.83;;;2.20;;
1837;SDS011;918;50.796;6.772;2024-03-23T04:01:43;6.00;;;2.27;;
1837;SDS011;918;50.796;6.772;2024-03-23T04:04:08;4.43;;;2.60;;
1837;SDS011;918;50.796;6.772;2024-03-23T04:06:33;8.13;;;2.30;;
1837;SDS011;918;50.796;6.772;2024-03-23T04:08:59;6.73;;;2.30;;
1837;SDS011;918;50.796;6.772;2024-03-23T04:11:24;3.43;;;2.10;;
1837;SDS011;918;50.796;6.772;2024-03-23T04:13:49;3.50;;;2.20;;
1837;SDS011;918;50.796;6.772;2024-03-23T04:16:24;7.93;;;2.93;;
1837;SDS011;918;50.796;6.772;2024-03-23T04:18:53;5.80;;;2.30;;
1837;SDS011;918;50.796;6.772;2024-03-23T04:21:19;5.40;;;2.33;;
1837;SDS011;918;50.796;6.772;2024-03-23T04:23:44;4.00;;;2.07;;
1837;SDS011;918;50.796;6.772;2024-03-23T04:26:09;5.40;;;2.10;;
1837;SDS011;918;50.796;6.772;2024-03-23T04:28:35;5.97;;;2.50;;
1837;SDS011;918;50.796;6.772;2024-03-23T04:31:03;4.03;;;2.17;;
1837;SDS011;918;50.796;6.772;2024-03-23T04:33:29;5.10;;;2.57;;
1837;SDS011;918;50.796;6.772;2024-03-23T04:35:54;3.90;;;2.60;;
1837;SDS011;918;50.796;6.772;2024-03-23T04:38:20;3.90;;;2.00;;
1837;SDS011;918;50.796;6.772;2024-03-23T04:40:45;3.17;;;2.00;;
1837;SDS011;918;50.796;6.772;2024-03-23T04:43:19;6.33;;;2.97;;
1837;SDS011;918;50.796;6.772;2024-03-23T04:45:44;6.00;;;2.53;;
1837;SDS011;918;50.796;6.772;2024-03-23T04:48:09;6.53;;;2.60;;
1837;SDS011;918;50.796;6.772;2024-03-23T04:50:34;4.23;;;2.10;;
1837;SDS011;918;50.796;6.772;2024-03-23T04:53:00;5.20;;;2.80;;
1837;SDS011;918;50.796;6.772;2024-03-23T04:55:25;7.40;;;3.00;;
1837;SDS011;918;50.796;6.772;2024-03-23T04:57:50;3.50;;;2.30;;
1837;SDS011;918;50.796;6.772;2024-03-23T05:00:16;6.13;;;3.00;;
1837;SDS011;918;50.796;6.772;2024-03-23T05:02:44;5.23;;;2.50;;
1837;SDS011;918;50.796;6.772;2024-03-23T05:05:10;4.00;;;2.90;;
1837;SDS011;918;50.796;6.772;2024-03-23T05:07:36;7.37;;;2.80;;
1837;SDS011;918;50.796;6.772;2024-03-23T05:10:01;8.57;;;2.87;;
1837;SDS011;918;50.796;6.772;2024-03-23T05:12:26;8.33;;;2.73;;
1837;SDS011;918;50.796;6.772;2024-03-23T05:14:51;3.30;;;2.57;;
1837;SDS011;918;50.796;6.772;2024-03-23T05:17:17;6.03;;;3.20;;
1837;SDS011;918;50.796;6.772;2024-03-23T05:19:43;5.10;;;3.20;;
1837;SDS011;918;50.796;6.772;2024-03-23T05:22:09;5.97;;;3.03;;
1837;SDS011;918;50.796;6.772;2024-03-23T05:24:34;4.93;;;2.60;;
1837;SDS011;918;50.796;6.772;2024-03-23T05:26:59;7.17;;;4.93;;
1837;SDS011;918;50.796;6.772;2024-03-23T05:29:25;8.67;;;3.37;;
1837;SDS011;918;50.796;6.772;2024-03-23T05:31:51;5.03;;;2.70;;
1837;SDS011;918;50.796;6.772;2024-03-23T05:34:17;7.37;;;2.80;;
1837;SDS011;918;50.796;6.772;2024-03-23T05:36:42;6.03;;;2.70;;
1837;SDS011;918;50.796;6.772;2024-03-23T05:39:08;6.87;;;2.70;;
1837;SDS011;918;50.796;6.772;2024-03-23T05:41:33;6.67;;;2.70;;
1837;SDS011;918;50.796;6.772;2024-03-23T05:44:00;5.53;;;2.87;;
1837;SDS011;918;50.796;6.772;2024-03-23T05:46:26;6.40;;;2.70;;
1837;SDS011;918;50.796;6.772;2024-03-23T05:48:51;8.57;;;3.13;;
1837;SDS011;918;50.796;6.772;2024-03-23T05:51:16;5.63;;;2.30;;
1837;SDS011;918;50.796;6.772;2024-03-23T05:53:42;8.67;;;3.23;;
1837;SDS011;918;50.796;6.772;2024-03-23T05:56:07;3.80;;;2.20;;
1837;SDS011;918;50.796;6.772;2024-03-23T05:58:33;9.57;;;2.80;;
1837;SDS011;918;50.796;6.772;2024-03-23T06:00:58;6.20;;;3.17;;
1837;SDS011;918;50.796;6.772;2024-03-23T06:03:28;7.10;;;3.30;;
1837;SDS011;918;50.796;6.772;2024-03-23T06:05:54;7.13;;;3.00;;
1837;SDS011;918;50.796;6.772;2024-03-23T06:08:20;12.03;;;3.97;;
1837;SDS011;918;50.796;6.772;2024-03-23T06:10:46;7.20;;;3.23;;
1837;SDS011;918;50.796;6.772;2024-03-23T06:13:11;7.20;;;3.50;;
1837;SDS011;918;50.796;6.772;2024-03-23T06:15:37;4.40;;;2.87;;
1837;SDS011;918;50.796;6.772;2024-03-23T06:18:03;6.40;;;3.33;;
1837;SDS011;918;50.796;6.772;2024-03-23T06:20:33;5.23;;;3.27;;
1837;SDS011;918;50.796;6.772;2024-03-23T06:22:58;10.50;;;3.30;;
1837;SDS011;918;50.796;6.772;2024-03-23T06:25:23;6.60;;;3.63;;
1837;SDS011;918;50.796;6.772;2024-03-23T06:27:49;6.27;;;3.20;;
1837;SDS011;918;50.796;6.772;2024-03-23T06:30:14;4.80;;;3.23;;
1837;SDS011;918;50.796;6.772;2024-03-23T06:32:39;8.20;;;3.37;;
1837;SDS011;918;50.796;6.772;2024-03-23T06:35:05;6.03;;;3.30;;
1837;SDS011;918;50.796;6.772;2024-03-23T06:37:33;7.80;;;3.60;;
1837;SDS011;918;50.796;6.772;2024-03-23T06:39:58;5.87;;;3.13;;
1837;SDS011;918;50.796;6.772;2024-03-23T06:42:23;5.97;;;2.93;;
1837;SDS011;918;50.796;6.772;2024-03-23T06:44:49;10.03;;;4.27;;
1837;SDS011;918;50.796;6.772;2024-03-23T06:47:14;6.23;;;2.67;;
1837;SDS011;918;50.796;6.772;2024-03-23T06:49:39;6.70;;;3.63;;
1837;SDS011;918;50.796;6.772;2024-03-23T06:52:04;7.20;;;3.57;;
1837;SDS011;918;50.796;6.772;2024-03-23T06:54:30;10.03;;;4.30;;
1837;SDS011;918;50.796;6.772;2024-03-23T06:56:55;5.37;;;3.13;;
1837;SDS011;918;50.796;6.772;2024-03-23T06:59:21;7.97;;;3.97;;
1837;SDS011;918;50.796;6.772;2024-03-23T07:01:46;11.37;;;4.80;;
1837;SDS011;918;50.796;6.772;2024-03-23T07:04:11;8.53;;;4.37;;
1837;SDS011;918;50.796;6.772;2024-03-23T07:06:42;5.27;;;3.73;;
1837;SDS011;918;50.796;6.772;2024-03-23T07:09:08;7.73;;;4.63;;
1837;SDS011;918;50.796;6.772;2024-03-23T07:11:34;11.53;;;5.00;;
1837;SDS011;918;50.796;6.772;2024-03-23T07:13:59;9.30;;;5.80;;
1837;SDS011;918;50.796;6.772;2024-03-23T07:16:26;8.27;;;5.17;;
1837;SDS011;918;50.796;6.772;2024-03-23T07:18:52;9.60;;;5.13;;
1837;SDS011;918;50.796;6.772;2024-03-23T07:21:17;9.70;;;5.90;;
1837;SDS011;918;50.796;6.772;2024-03-23T07:23:42;11.93;;;6.00;;
1837;SDS011;918;50.796;6.772;2024-03-23T07:26:10;10.00;;;6.27;;
1837;SDS011;918;50.796;6.772;2024-03-23T07:28:36;15.33;;;7.10;;
1837;SDS011;918;50.796;6.772;2024-03-23T07:31:03;13.97;;;7.27;;
1837;SDS011;918;50.796;6.772;2024-03-23T07:33:28;10.70;;;7.83;;
1837;SDS011;918;50.796;6.772;2024-03-23T07:35:54;10.40;;;9.10;;
1837;SDS011;918;50.796;6.772;2024-03-23T07:38:19;11.90;;;8.37;;
1837;SDS011;918;50.796;6.772;2024-03-23T07:40:44;11.47;;;8.03;;
1837;SDS011;918;50.796;6.772;2024-03-23T07:43:10;10.70;;;8.63;;
1837;SDS011;918;50.796;6.772;2024-03-23T07:45:35;10.37;;;7.80;;
1837;SDS011;918;50.796;6.772;2024-03-23T07:48:02;8.67;;;6.60;;
1837;SDS011;918;50.796;6.772;2024-03-23T07:50:28;4.00;;;2.50;;
1837;SDS011;918;50.796;6.772;2024-03-23T07:52:53;3.43;;;2.20;;
1837;SDS011;918;50.796;6.772;2024-03-23T07:55:18;2.90;;;1.73;;
1837;SDS011;918;50.796;6.772;2024-03-23T07:57:44;2.57;;;1.40;;
1837;SDS011;918;50.796;6.772;2024-03-23T08:00:09;4.10;;;1.53;;
1837;SDS011;918;50.796;6.772;2024-03-23T08:02:35;2.40;;;1.40;;
1837;SDS011;918;50.796;6.772;2024-03-23T08:05:00;5.47;;;1.67;;
1837;SDS011;918;50.796;6.772;2024-03-23T08:07:25;1.70;;;1.40;;
1837;SDS011;918;50.796;6.772;2024-03-23T08:09:50;2.53;;;1.50;;
1837;SDS011;918;50.796;6.772;2024-03-23T08:12:16;4.53;;;2.77;;
1837;SDS011;918;50.796;6.772;2024-03-23T08:14:41;3.40;;;2.10;;
1837;SDS011;918;50.796;6.772;2024-03-23T08:17:06;3.10;;;2.40;;
1837;SDS011;918;50.796;6.772;2024-03-23T08:19:31;2.47;;;2.23;;
1837;SDS011;918;50.796;6.772;2024-03-23T08:21:57;5.53;;;2.47;;
1837;SDS011;918;50.796;6.772;2024-03-23T08:24:22;7.40;;;3.57;;
1837;SDS011;918;50.796;6.772;2024-03-23T08:26:47;5.20;;;4.40;;
1837;SDS011;918;50.796;6.772;2024-03-23T08:29:13;6.83;;;5.30;;
1837;SDS011;918;50.796;6.772;2024-03-23T08:31:38;8.17;;;6.80;;
1837;SDS011;918;50.796;6.772;2024-03-23T08:34:04;7.07;;;6.37;;
1837;SDS011;918;50.796;6.772;2024-03-23T08:36:29;8.93;;;7.20;;
1837;SDS011;918;50.796;6.772;2024-03-23T08:38:55;7.53;;;6.90;;
1837;SDS011;918;50.796;6.772;2024-03-23T08:41:21;8.43;;;7.57;;
1837;SDS011;918;50.796;6.772;2024-03-23T08:43:46;8.00;;;6.80;;
1837;SDS011;918;50.796;6.772;2024-03-23T08:46:12;10.77;;;8.40;;
1837;SDS011;918;50.796;6.772;2024-03-23T08:48:45;10.60;;;7.10;;
1837;SDS011;918;50.796;6.772;2024-03-23T08:51:14;8.60;;;5.90;;
1837;SDS011;918;50.796;6.772;2024-03-23T08:53:41;16.83;;;7.40;;
1837;SDS011;918;50.796;6.772;2024-03-23T08:56:07;7.00;;;5.70;;
1837;SDS011;918;50.796;6.772;2024-03-23T08:58:33;8.93;;;5.43;;
1837;SDS011;918;50.796;6.772;2024-03-23T09:01:03;9.00;;;5.97;;
1837;SDS011;918;50.796;6.772;2024-03-23T09:03:29;10.80;;;6.07;;
1837;SDS011;918;50.796;6.772;2024-03-23T09:05:54;8.93;;;5.00;;
1837;SDS011;918;50.796;6.772;2024-03-23T09:08:20;8.43;;;4.90;;
1837;SDS011;918;50.796;6.772;2024-03-23T09:10:46;5.50;;;5.00;;
1837;SDS011;918;50.796;6.772;2024-03-23T09:13:12;6.40;;;4.60;;
1837;SDS011;918;50.796;6.772;2024-03-23T09:15:45;10.37;;;4.70;;
1837;SDS011;918;50.796;6.772;2024-03-23T09:18:11;8.90;;;4.10;;
1837;SDS011;918;50.796;6.772;2024-03-23T09:20:36;6.30;;;3.50;;
1837;SDS011;918;50.796;6.772;2024-03-23T09:23:01;5.43;;;3.53;;
1837;SDS011;918;50.796;6.772;2024-03-23T09:25:27;7.43;;;4.00;;
1837;SDS011;918;50.796;6.772;2024-03-23T09:27:52;9.33;;;3.60;;
1837;SDS011;918;50.796;6.772;2024-03-23T09:30:17;6.10;;;4.00;;
1837;SDS011;918;50.796;6.772;2024-03-23T09:32:46;6.27;;;3.20;;
1837;SDS011;918;50.796;6.772;2024-03-23T09:35:11;6.17;;;3.60;;
1837;SDS011;918;50.796;6.772;2024-03-23T09:37:37;8.17;;;3.10;;
1837;SDS011;918;50.796;6.772;2024-03-23T09:40:05;6.10;;;3.70;;
1837;SDS011;918;50.796;6.772;2024-03-23T09:42:32;6.43;;;3.20;;
1837;SDS011;918;50.796;6.772;2024-03-23T09:44:58;5.40;;;3.00;;
1837;SDS011;918;50.796;6.772;2024-03-23T09:47:24;11.27;;;3.83;;
1837;SDS011;918;50.796;6.772;2024-03-23T09:49:50;4.67;;;3.57;;
1837;SDS011;918;50.796;6.772;2024-03-23T09:52:15;5.43;;;3.50;;
1837;SDS011;918;50.796;6.772;2024-03-23T09:54:40;7.50;;;3.60;;
1837;SDS011;918;50.796;6.772;2024-03-23T09:57:06;5.43;;;3.63;;
1837;SDS011;918;50.796;6.772;2024-03-23T09:59:32;6.70;;;3.30;;
1837;SDS011;918;50.796;6.772;2024-03-23T10:01:58;4.80;;;3.63;;
1837;SDS011;918;50.796;6.772;2024-03-23T10:04:39;7.17;;;3.30;;
1837;SDS011;918;50.796;6.772;2024-03-23T10:07:12;9.00;;;2.80;;
1837;SDS011;918;50.796;6.772;2024-03-23T10:09:43;5.70;;;3.43;;
1837;SDS011;918;50.796;6.772;2024-03-23T10:12:09;3.63;;;2.77;;
1837;SDS011;918;50.796;6.772;2024-03-23T10:14:35;2.87;;;2.33;;
1837;SDS011;918;50.796;6.772;2024-03-23T10:17:11;3.43;;;2.07;;
1837;SDS011;918;50.796;6.772;2024-03-23T10:19:40;4.80;;;1.73;;
1837;SDS011;918;50.796;6.772;2024-03-23T10:22:07;4.83;;;1.40;;
1837;SDS011;918;50.796;6.772;2024-03-23T10:24:33;1.90;;;1.40;;
1837;SDS011;918;50.796;6.772;2024-03-23T10:26:59;3.30;;;1.60;;
1837;SDS011;918;50.796;6.772;2024-03-23T10:29:24;2.13;;;1.60;;
1837;SDS011;918;50.796;6.772;2024-03-23T10:31:52;1.50;;;1.40;;
1837;SDS011;918;50.796;6.772;2024-03-23T10:34:24;3.70;;;1.40;;
1837;SDS011;918;50.796;6.772;2024-03-23T10:36:50;2.93;;;1.50;;
1837;SDS011;918;50.796;6.772;2024-03-23T10:39:20;2.30;;;1.60;;
1837;SDS011;918;50.796;6.772;2024-03-23T10:41:46;2.10;;;1.33;;
1837;SDS011;918;50.796;6.772;2024-03-23T10:44:15;2.30;;;1.70;;
1837;SDS011;918;50.796;6.772;2024-03-23T10:46:42;3.07;;;1.40;;
1837;SDS011;918;50.796;6.772;2024-03-23T10:49:07;2.73;;;1.63;;
1837;SDS011;918;50.796;6.772;2024-03-23T10:51:32;3.57;;;1.83;;
1837;SDS011;918;50.796;6.772;2024-03-23T10:53:58;3.77;;;1.70;;
1837;SDS011;918;50.796;6.772;2024-03-23T10:56:25;3.80;;;1.60;;
1837;SDS011;918;50.796;6.772;2024-03-23T10:58:51;3.17;;;2.10;;
1837;SDS011;918;50.796;6.772;2024-03-23T11:01:17;5.50;;;2.60;;
1837;SDS011;918;50.796;6.772;2024-03-23T11:03:46;6.83;;;2.60;;
1837;SDS011;918;50.796;6.772;2024-03-23T11:06:33;3.50;;;3.17;;
1837;SDS011;918;50.796;6.772;2024-03-23T11:09:00;4.47;;;3.63;;
1837;SDS011;918;50.796;6.772;2024-03-23T11:11:26;6.20;;;3.93;;
1837;SDS011;918;50.796;6.772;2024-03-23T11:13:52;4.73;;;4.20;;
1837;SDS011;918;50.796;6.772;2024-03-23T11:16:25;4.90;;;4.40;;
1837;SDS011;918;50.796;6.772;2024-03-23T11:21:59;6.23;;;4.10;;
1837;SDS011;918;50.796;6.772;2024-03-23T11:24:25;5.00;;;4.37;;
1837;SDS011;918;50.796;6.772;2024-03-23T11:26:50;5.33;;;4.60;;
1837;SDS011;918;50.796;6.772;2024-03-23T11:29:16;5.77;;;3.60;;
1837;SDS011;918;50.796;6.772;2024-03-23T11:31:49;5.13;;;2.87;;
1837;SDS011;918;50.796;6.772;2024-03-23T11:34:16;5.17;;;3.27;;
1837;SDS011;918;50.796;6.772;2024-03-23T11:36:42;7.20;;;3.93;;
1837;SDS011;918;50.796;6.772;2024-03-23T11:39:14;4.43;;;3.17;;
1837;SDS011;918;50.796;6.772;2024-03-23T11:41:47;9.83;;;3.83;;
1837;SDS011;918;50.796;6.772;2024-03-23T11:44:19;4.90;;;3.53;;
1837;SDS011;918;50.796;6.772;2024-03-23T11:46:45;8.80;;;4.23;;
1837;SDS011;918;50.796;6.772;2024-03-23T11:51:48;5.70;;;4.43;;
1837;SDS011;918;50.796;6.772;2024-03-23T11:54:14;8.27;;;3.73;;
1837;SDS011;918;50.796;6.772;2024-03-23T11:56:39;4.63;;;3.00;;
1837;SDS011;918;50.796;6.772;2024-03-23T11:59:06;4.80;;;3.00;;
1837;SDS011;918;50.796;6.772;2024-03-23T12:01:31;5.50;;;3.17;;
1837;SDS011;918;50.796;6.772;2024-03-23T12:03:57;3.37;;;2.93;;
1837;SDS011;918;50.796;6.772;2024-03-23T12:06:22;3.10;;;2.80;;
1837;SDS011;918;50.796;6.772;2024-03-23T12:08:47;5.17;;;3.23;;
1837;SDS011;918;50.796;6.772;2024-03-23T12:11:14;5.63;;;3.00;;
1837;SDS011;918;50.796;6.772;2024-03-23T12:13:41;3.60;;;2.63;;
1837;SDS011;918;50.796;6.772;2024-03-23T12:16:12;2.77;;;2.10;;
1837;SDS011;918;50.796;6.772;2024-03-23T12:18:46;4.80;;;3.30;;
1837;SDS011;918;50.796;6.772;2024-03-23T12:21:12;2.97;;;2.77;;
1837;SDS011;918;50.796;6.772;2024-03-23T12:23:40;5.20;;;2.67;;
1837;SDS011;918;50.796;6.772;2024-03-23T12:26:06;3.80;;;3.03;;
1837;SDS011;918;50.796;6.772;2024-03-23T12:28:32;4.37;;;2.80;;
1837;SDS011;918;50.796;6.772;2024-03-23T12:30:58;3.37;;;1.50;;
1837;SDS011;918;50.796;6.772;2024-03-23T12:33:23;1.97;;;1.13;;
1837;SDS011;918;50.796;6.772;2024-03-23T12:35:52;2.00;;;1.40;;
1837;SDS011;918;50.796;6.772;2024-03-23T12:38:17;1.17;;;1.03;;
1837;SDS011;918;50.796;6.772;2024-03-23T12:40:49;5.33;;;1.47;;
1837;SDS011;918;50.796;6.772;2024-03-23T12:43:15;3.10;;;1.70;;
1837;SDS011;918;50.796;6.772;2024-03-23T12:45:41;2.30;;;1.50;;
1837;SDS011;918;50.796;6.772;2024-03-23T12:48:10;3.53;;;0.90;;
1837;SDS011;918;50.796;6.772;2024-03-23T12:50:36;2.43;;;1.10;;
1837;SDS011;918;50.796;6.772;2024-03-23T12:53:01;1.27;;;1.17;;
1837;SDS011;918;50.796;6.772;2024-03-23T12:55:26;1.60;;;0.90;;
1837;SDS011;918;50.796;6.772;2024-03-23T12:57:51;1.00;;;0.73;;
1837;SDS011;918;50.796;6.772;2024-03-23T13:00:17;2.27;;;1.10;;
1837;SDS011;918;50.796;6.772;2024-03-23T13:02:42;3.17;;;0.93;;
1837;SDS011;918;50.796;6.772;2024-03-23T13:05:08;1.37;;;0.90;;
1837;SDS011;918;50.796;6.772;2024-03-23T13:07:36;0.83;;;0.83;;
1837;SDS011;918;50.796;6.772;2024-03-23T13:10:02;0.90;;;0.90;;
1837;SDS011;918;50.796;6.772;2024-03-23T13:12:28;1.00;;;1.00;;
1837;SDS011;918;50.796;6.772;2024-03-23T13:14:54;3.23;;;1.30;;
1837;SDS011;918;50.796;6.772;2024-03-23T13:17:19;2.63;;;1.73;;
1837;SDS011;918;50.796;6.772;2024-03-23T13:19:44;1.90;;;1.50;;
1837;SDS011;918;50.796;6.772;2024-03-23T13:22:10;1.90;;;1.60;;
1837;SDS011;918;50.796;6.772;2024-03-23T13:24:36;2.60;;;2.00;;
1837;SDS011;918;50.796;6.772;2024-03-23T13:27:02;3.57;;;2.87;;
1837;SDS011;918;50.796;6.772;2024-03-23T13:29:27;4.90;;;2.23;;
1837;SDS011;918;50.796;6.772;2024-03-23T13:31:53;3.10;;;2.33;;
1837;SDS011;918;50.796;6.772;2024-03-23T13:34:18;3.27;;;2.00;;
1837;SDS011;918;50.796;6.772;2024-03-23T13:36:44;2.57;;;1.80;;
1837;SDS011;918;50.796;6.772;2024-03-23T13:39:11;3.07;;;2.20;;
1837;SDS011;918;50.796;6.772;2024-03-23T13:41:45;6.13;;;2.40;;
1837;SDS011;918;50.796;6.772;2024-03-23T13:44:11;2.80;;;2.43;;
1837;SDS011;918;50.796;6.772;2024-03-23T13:46:38;3.20;;;2.27;;
1837;SDS011;918;50.796;6.772;2024-03-23T13:49:04;3.00;;;2.70;;
1837;SDS011;918;50.796;6.772;2024-03-23T13:51:30;5.50;;;2.30;;
1837;SDS011;918;50.796;6.772;2024-03-23T13:53:56;3.47;;;2.50;;
1837;SDS011;918;50.796;6.772;2024-03-23T13:56:22;5.67;;;2.70;;
1837;SDS011;918;50.796;6.772;2024-03-23T13:58:47;3.07;;;2.70;;
1837;SDS011;918;50.796;6.772;2024-03-23T14:01:13;2.80;;;1.87;;
1837;SDS011;918;50.796;6.772;2024-03-23T14:03:39;4.97;;;1.63;;
1837;SDS011;918;50.796;6.772;2024-03-23T14:06:05;2.80;;;1.50;;
1837;SDS011;918;50.796;6.772;2024-03-23T14:08:32;2.10;;;1.33;;
1837;SDS011;918;50.796;6.772;2024-03-23T14:10:59;1.70;;;1.60;;
1837;SDS011;918;50.796;6.772;2024-03-23T14:13:24;2.20;;;1.87;;
1837;SDS011;918;50.796;6.772;2024-03-23T14:15:53;1.67;;;1.57;;
1837;SDS011;918;50.796;6.772;2024-03-23T14:18:18;2.50;;;2.00;;
1837;SDS011;918;50.796;6.772;2024-03-23T14:20:44;1.90;;;1.80;;
1837;SDS011;918;50.796;6.772;2024-03-23T14:23:09;3.70;;;2.23;;
1837;SDS011;918;50.796;6.772;2024-03-23T14:25:34;2.80;;;2.00;;
1837;SDS011;918;50.796;6.772;2024-03-23T14:27:59;2.80;;;2.20;;
1837;SDS011;918;50.796;6.772;2024-03-23T14:30:25;2.00;;;1.90;;
1837;SDS011;918;50.796;6.772;2024-03-23T14:32:50;4.43;;;2.20;;
1837;SDS011;918;50.796;6.772;2024-03-23T14:35:16;3.00;;;2.40;;
1837;SDS011;918;50.796;6.772;2024-03-23T14:37:41;2.07;;;1.53;;
1837;SDS011;918;50.796;6.772;2024-03-23T14:40:07;4.00;;;2.27;;
1837;SDS011;918;50.796;6.772;2024-03-23T14:42:33;2.47;;;1.80;;
1837;SDS011;918;50.796;6.772;2024-03-23T14:44:58;2.60;;;2.10;;
1837;SDS011;918;50.796;6.772;2024-03-23T14:47:23;2.73;;;2.50;;
1837;SDS011;918;50.796;6.772;2024-03-23T14:49:49;5.60;;;2.30;;
1837;SDS011;918;50.796;6.772;2024-03-23T14:52:18;3.00;;;2.10;;
1837;SDS011;918;50.796;6.772;2024-03-23T14:54:43;2.43;;;1.77;;
1837;SDS011;918;50.796;6.772;2024-03-23T14:57:09;2.30;;;2.00;;
1837;SDS011;918;50.796;6.772;2024-03-23T14:59:35;3.53;;;2.63;;
1837;SDS011;918;50.796;6.772;2024-03-23T15:02:00;1.93;;;1.70;;
1837;SDS011;918;50.796;6.772;2024-03-23T15:04:26;2.03;;;1.00;;
1837;SDS011;918;50.796;6.772;2024-03-23T15:06:51;1.00;;;0.80;;
1837;SDS011;918;50.796;6.772;2024-03-23T15:09:16;2.50;;;1.13;;
1837;SDS011;918;50.796;6.772;2024-03-23T15:11:42;1.00;;;1.00;;
1837;SDS011;918;50.796;6.772;2024-03-23T15:14:07;2.93;;;1.00;;
1837;SDS011;918;50.796;6.772;2024-03-23T15:16:33;1.37;;;1.10;;
1837;SDS011;918;50.796;6.772;2024-03-23T15:18:58;3.23;;;1.20;;
1837;SDS011;918;50.796;6.772;2024-03-23T15:21:24;2.13;;;1.13;;
1837;SDS011;918;50.796;6.772;2024-03-23T15:23:49;3.10;;;1.43;;
1837;SDS011;918;50.796;6.772;2024-03-23T15:26:14;3.60;;;1.30;;
1837;SDS011;918;50.796;6.772;2024-03-23T15:28:41;1.40;;;1.30;;
1837;SDS011;918;50.796;6.772;2024-03-23T15:31:08;1.30;;;1.20;;
1837;SDS011;918;50.796;6.772;2024-03-23T15:33:36;2.07;;;1.30;;
1837;SDS011;918;50.796;6.772;2024-03-23T15:36:02;5.23;;;1.53;;
1837;SDS011;918;50.796;6.772;2024-03-23T15:38:28;2.03;;;1.30;;
1837;SDS011;918;50.796;6.772;2024-03-23T15:40:57;2.47;;;2.23;;
1837;SDS011;918;50.796;6.772;2024-03-23T15:43:22;3.37;;;1.90;;
1837;SDS011;918;50.796;6.772;2024-03-23T15:45:54;4.00;;;1.97;;
1837;SDS011;918;50.796;6.772;2024-03-23T15:48:20;2.43;;;1.63;;
1837;SDS011;918;50.796;6.772;2024-03-23T15:50:52;2.03;;;1.77;;
1837;SDS011;918;50.796;6.772;2024-03-23T15:53:18;2.50;;;1.67;;
1837;SDS011;918;50.796;6.772;2024-03-23T15:55:44;2.80;;;1.93;;
1837;SDS011;918;50.796;6.772;2024-03-23T15:58:10;2.80;;;1.93;;
1837;SDS011;918;50.796;6.772;2024-03-23T16:00:35;2.47;;;2.17;;
1837;SDS011;918;50.796;6.772;2024-03-23T16:03:00;3.43;;;3.13;;
1837;SDS011;918;50.796;6.772;2024-03-23T16:05:26;2.83;;;2.17;;
1837;SDS011;918;50.796;6.772;2024-03-23T16:07:52;1.90;;;1.70;;
1837;SDS011;918;50.796;6.772;2024-03-23T16:10:18;1.97;;;1.80;;
1837;SDS011;918;50.796;6.772;2024-03-23T16:12:43;0.80;;;0.80;;
1837;SDS011;918;50.796;6.772;2024-03-23T16:15:08;1.40;;;0.87;;
1837;SDS011;918;50.796;6.772;2024-03-23T16:17:34;0.50;;;0.50;;
1837;SDS011;918;50.796;6.772;2024-03-23T16:20:01;1.40;;;0.80;;